Aeroporto :
LOGIN :

Iscrizione | Disclaimer

   EN    FR    IT 

 










Sommario :    VFR   VFR Marginale   IFR   IFR Intensivo   IFR Molto Intensivo
Visibilità : 
Base nubi : 
>= 8 km
>= 3000ft
5 / 8 km
1000 / 3000 ft
1500m / 5 km
500 / 1000 ft
800 / 1500m
200 / 500 ft
< 800m
< 200 ft
Simboli :   Temporali  Nebbia  Neve Forte  Precipitazioni Forti  Vento > 20 kt
SIGMETs :   Varie  Temporali  Ghiacco  Turbolenza  Onda orograficha  Ceneri Vulcaniche






- Altitudine del aeroporto : 604 ft
- Codice IATA : LCJ


EPLL - Lodz

ULTIMO METAR :
  • 191600Z 08004KT CAVOK 07/05 Q1020

METARs OBSOLETI :
  • 191530Z 07004KT CAVOK 08/05 Q1020
  • 191500Z 09005KT CAVOK 09/05 Q1020
  • 191430Z 09006KT 070V130 CAVOK 10/06 Q1020
  • 191400Z 10005KT CAVOK 11/05 Q1020
  • 191330Z 11004KT 080V140 CAVOK 11/05 Q1020

TAF TAF EPLL
Valido dal 19 a 12 ore il 20 a 12 ore UTC


191130Z 1912/2012 13006KT CAVOK
TEMPO 1921/2005 2000 BR
PROB40 2005/2012 1200 BR BKN007



MetMap, La meteo Aeronautica in un colpo d'occhio ! - Copyright ORBIFLY Dicembre 2007 - Disclaimer

ORBIFLY MET'MAP TEAM :

Programmazione e sviluppo : Alexandra Zaïnal
Concezione e sviluppo : Baudouin d'Aumeries
Co-Programmazione e sviluppo : Marc-Olivier Méhu
Supporto tecnico e logistico : Manuel Goepfert
Aiuto per la traduzione : Arnaldo La Scala

Contatto : metmap@orbifly.com




FONTI E CREDITI :

   NOAA